createdAt,value
2018-12-07T00:07:57.507Z,7.60
2018-12-07T00:18:13.181Z,9.67
2018-12-07T00:28:28.601Z,8.33
2018-12-07T00:38:43.581Z,8.50
2018-12-07T00:48:58.648Z,10.13
2018-12-07T00:59:14.446Z,10.00
2018-12-07T01:09:30.082Z,11.43
2018-12-07T01:19:45.028Z,11.87
2018-12-07T01:30:00.648Z,9.07
2018-12-07T01:40:15.449Z,8.77
2018-12-07T01:50:30.637Z,7.97
2018-12-07T02:00:46.208Z,7.80
2018-12-07T02:11:00.932Z,6.77
2018-12-07T02:21:16.729Z,6.63
2018-12-07T02:31:31.711Z,6.30
2018-12-07T02:41:47.255Z,6.50
2018-12-07T02:52:02.804Z,5.00
2018-12-07T03:02:17.657Z,5.37
2018-12-07T03:12:33.327Z,7.20
2018-12-07T03:22:48.731Z,6.43
2018-12-07T03:33:03.900Z,6.60
2018-12-07T03:43:19.137Z,5.23
2018-12-07T03:53:34.367Z,6.53
2018-12-07T04:03:50.190Z,4.83
2018-12-07T04:14:05.885Z,3.03
2018-12-07T04:24:20.917Z,3.50
2018-12-07T04:34:35.737Z,3.43
2018-12-07T04:44:50.734Z,4.33
2018-12-07T04:55:06.169Z,4.77
2018-12-07T05:05:20.986Z,4.87
2018-12-07T05:15:36.191Z,5.43
2018-12-07T05:25:50.866Z,5.58
2018-12-07T05:36:06.021Z,6.57
2018-12-07T05:46:21.736Z,5.00
2018-12-07T05:56:36.397Z,5.53
2018-12-07T06:06:51.261Z,6.00
2018-12-07T06:17:06.607Z,6.50
2018-12-07T06:27:21.681Z,7.07
2018-12-07T06:37:36.767Z,8.00
2018-12-07T06:47:52.503Z,8.90
2018-12-07T06:58:08.463Z,10.00
2018-12-07T07:08:24.397Z,8.33
2018-12-07T07:18:39.722Z,8.97
2018-12-07T07:28:54.390Z,7.83
2018-12-07T07:39:10.067Z,6.70
2018-12-07T07:49:24.914Z,6.40
2018-12-07T07:59:39.937Z,7.23
2018-12-07T08:09:54.856Z,5.80
2018-12-07T08:20:10.252Z,6.57
2018-12-07T08:30:25.867Z,5.20
2018-12-07T08:40:41.407Z,5.83
2018-12-07T08:50:55.995Z,4.13
2018-12-07T09:01:10.748Z,5.23
2018-12-07T09:11:25.776Z,6.87
2018-12-07T09:21:41.073Z,5.63
2018-12-07T09:31:56.948Z,4.10
2018-12-07T09:42:12.926Z,4.97
2018-12-07T09:52:28.222Z,2.63
2018-12-07T10:02:43.310Z,2.30
2018-12-07T10:12:58.667Z,2.93
2018-12-07T10:23:14.155Z,2.10
2018-12-07T10:33:29.129Z,2.37
2018-12-07T10:43:43.997Z,1.70
2018-12-07T10:53:59.586Z,1.97
2018-12-07T11:04:20.497Z,1.40
2018-12-07T11:14:41.338Z,1.07
2018-12-07T11:25:59.035Z,1.17
2018-12-07T11:36:14.071Z,1.10
2018-12-07T11:46:29.936Z,0.60
2018-12-07T11:56:45.415Z,1.03
2018-12-07T12:07:01.113Z,1.57
2018-12-07T12:17:16.606Z,0.80
2018-12-07T12:27:32.164Z,0.47
2018-12-07T12:37:48.502Z,0.67
2018-12-07T12:48:04.185Z,0.67
2018-12-07T12:58:19.669Z,0.50
2018-12-07T13:08:35.309Z,0.60
2018-12-07T13:18:51.118Z,0.30
2018-12-07T13:29:06.808Z,0.73
2018-12-07T13:39:22.474Z,0.30
2018-12-07T13:49:37.771Z,1.00
2018-12-07T13:59:52.769Z,0.50
2018-12-07T14:10:08.528Z,2.17
2018-12-07T14:20:23.654Z,2.17
2018-12-07T14:30:39.146Z,1.40
2018-12-07T14:40:54.816Z,4.07
2018-12-07T14:51:10.111Z,2.23
2018-12-07T15:01:26.003Z,1.30
2018-12-07T15:11:41.152Z,3.77
2018-12-07T15:21:56.689Z,3.37
2018-12-07T15:32:12.082Z,3.37
2018-12-07T15:42:27.796Z,1.40
2018-12-07T15:52:43.718Z,3.98
2018-12-07T16:02:58.857Z,1.47
2018-12-07T16:13:14.256Z,2.33
2018-12-07T16:23:29.777Z,2.27
2018-12-07T16:33:45.892Z,1.62
2018-12-07T16:44:01.675Z,1.45
2018-12-07T16:54:18.360Z,1.77
2018-12-07T17:04:33.673Z,2.80
2018-12-07T17:14:49.421Z,2.97
2018-12-07T17:25:05.090Z,10.60
2018-12-07T17:35:20.042Z,5.50
2018-12-07T17:45:35.307Z,5.23
2018-12-07T17:55:50.928Z,5.90
2018-12-07T18:06:06.686Z,8.73
2018-12-07T18:16:21.770Z,19.35
2018-12-07T18:26:37.031Z,13.25
2018-12-07T18:36:52.865Z,9.90
2018-12-07T18:47:08.159Z,10.87
2018-12-07T18:57:23.396Z,7.23
2018-12-07T19:07:38.493Z,10.87
2018-12-07T19:17:54.183Z,6.30
2018-12-07T19:28:09.797Z,8.50
2018-12-07T19:38:25.535Z,10.03
2018-12-07T19:48:41.276Z,7.37
2018-12-07T19:58:57.634Z,4.27
2018-12-07T20:09:13.319Z,6.77
2018-12-07T20:19:28.206Z,12.90
2018-12-07T20:29:43.839Z,8.57
2018-12-07T20:39:59.213Z,9.47
2018-12-07T20:50:14.832Z,17.10
2018-12-07T21:00:30.570Z,10.63
2018-12-07T21:11:08.884Z,12.27
2018-12-07T21:21:28.343Z,10.27
2018-12-07T21:31:42.018Z,8.93
2018-12-07T21:41:57.155Z,5.43
2018-12-07T21:52:29.467Z,6.07
2018-12-07T22:02:44.349Z,5.77
2018-12-07T22:12:59.808Z,5.25
2018-12-07T22:23:15.359Z,5.92
2018-12-07T22:33:30.641Z,11.25
2018-12-07T22:43:45.661Z,7.03
2018-12-07T22:54:01.214Z,8.93
2018-12-07T23:04:16.919Z,11.20
2018-12-07T23:14:33.527Z,12.27
2018-12-07T23:24:48.392Z,17.87
2018-12-07T23:35:04.614Z,12.47
2018-12-07T23:45:20.520Z,16.03
2018-12-07T23:55:36.019Z,9.27
